Miami, Florida
Traffic Map
Current Weather Conditions
Miami, Florida
Few Clouds
Few Clouds
70°
Feels Like: 70°
Wind Chill: 70° Ceiling: Unl
Heat Index: 70° Visibility: 10mi
Dew Point: 61° Wind: 10mph
Humidity: 73% Direction: 90° (E)
Pressure: 30.16in Gusts: 0mph
Raw Report DataKMIA 251053Z 09009KT 10SM FEW030 21/16 A3016 RMK AO2 SLP212 T02110161 $
Traffic Incident Summary
Active as of:
Severity:
Category:
InformationThere was an issue retrieving the traffic information for this location. Please try a different location or try again shortly.
Advertisements
Track Severe Weather on mobile